Time;durP1;ratioP1;P1;durP2;ratioP2;P2;SDS_P1;SDS_P2;PMS_P1;PMS_P2;Temp;Humidity;BMP_temperature;BMP_pressure;BME280_temperature;BME280_humidity;BME280_pressure;Samples;Min_cycle;Max_cycle;Signal;HPM_P1;HPM_P2
2022/01/25 00:10:13;;;;;;;2.13;1.92;;;3.70;99.90;;;;;;5117218;27;20513;-81
2022/01/25 00:15:52;;;;;;;3.05;1.92;;;3.60;99.90;;;;;;5116910;27;20353;-81
2022/01/25 00:26:24;;;;;;;2.03;1.90;;;3.60;99.90;;;;;;5116108;27;20066;-81
2022/01/25 00:29:06;;;;;;;0.50;0.50;;;3.50;99.90;;;;;;5099650;27;20116;-81
2022/01/25 00:31:34;;;;;;;1.23;1.13;;;3.50;99.90;;;;;;5099531;27;20399;-81
2022/01/25 00:34:00;;;;;;;0.40;0.40;;;3.60;99.90;;;;;;5099443;27;20042;-81
2022/01/25 00:36:27;;;;;;;0.70;0.70;;;3.60;99.90;;;;;;5099057;27;20117;-81
2022/01/25 00:38:54;;;;;;;1.65;1.55;;;3.50;99.90;;;;;;5099394;27;20042;-81
2022/01/25 00:41:20;;;;;;;1.63;1.00;;;3.60;99.90;;;;;;5099568;27;20031;-81
2022/01/25 00:43:46;;;;;;;1.05;1.02;;;3.60;99.90;;;;;;5099524;27;20039;-81
2022/01/25 00:46:13;;;;;;;0.35;0.35;;;3.60;99.90;;;;;;5098793;27;20043;-81
2022/01/25 00:48:45;;;;;;;0.63;0.63;;;3.50;99.90;;;;;;5116438;27;20095;-81
2022/01/25 00:53:55;;;;;;;7.95;1.95;;;3.60;99.90;;;;;;5116356;27;20046;-81
2022/01/25 00:56:22;;;;;;;0.55;0.55;;;3.60;99.90;;;;;;5098617;27;20039;-81
2022/01/25 00:58:48;;;;;;;1.10;1.05;;;3.60;99.90;;;;;;5099433;27;20400;-81
2022/01/25 01:01:13;;;;;;;2.72;1.10;;;3.60;99.90;;;;;;5099163;27;20039;-81
2022/01/25 01:03:39;;;;;;;0.38;0.38;;;3.60;99.90;;;;;;5098970;27;20075;-81
2022/01/25 01:06:06;;;;;;;1.98;1.88;;;3.60;99.90;;;;;;5098861;27;20045;-81
2022/01/25 01:08:32;;;;;;;0.40;0.40;;;3.50;99.90;;;;;;5099383;27;20031;-81
2022/01/25 01:11:00;;;;;;;1.95;1.52;;;3.60;99.90;;;;;;5098997;27;20043;-81
2022/01/25 01:30:07;;;;;;;9.52;5.50;;;3.60;99.90;;;;;;5115245;28;20050;-81
2022/01/25 01:35:42;;;;;;;0.57;0.57;;;3.50;99.90;;;;;;5115911;28;20524;-81
2022/01/25 01:41:06;;;;;;;0.55;0.55;;;3.50;99.90;;;;;;5115439;28;20103;-81
2022/01/25 01:43:36;;;;;;;1.25;1.08;;;3.50;99.90;;;;;;5098439;28;20084;-81
2022/01/25 01:46:28;;;;;;;0.60;0.57;;;3.60;99.90;;;;;;5098234;28;20046;-82
2022/01/25 01:51:30;;;;;;;2.28;1.25;;;3.50;99.90;;;;;;5115633;28;20043;-81
2022/01/25 01:54:06;;;;;;;5.63;2.47;;;3.50;99.90;;;;;;5098921;28;20097;-81
2022/01/25 01:56:32;;;;;;;1.23;1.08;;;3.50;99.90;;;;;;5097943;28;20377;-81
2022/01/25 01:59:01;;;;;;;6.97;2.17;;;3.40;99.90;;;;;;5098447;28;20057;-81
2022/01/25 02:01:28;;;;;;;1.02;0.93;;;3.40;99.90;;;;;;5115595;28;20487;-81
2022/01/25 02:03:56;;;;;;;2.20;1.58;;;3.40;99.90;;;;;;5098588;28;20040;-81
2022/01/25 02:06:22;;;;;;;1.17;0.70;;;3.40;99.90;;;;;;5098133;28;20582;-81
2022/01/25 02:08:48;;;;;;;2.40;1.83;;;3.40;99.90;;;;;;5098347;28;20039;-81
2022/01/25 02:11:14;;;;;;;1.77;1.67;;;3.40;99.90;;;;;;5098250;28;20516;-81
2022/01/25 02:13:41;;;;;;;0.60;0.60;;;3.30;99.90;;;;;;5115288;28;20137;-81
2022/01/25 02:16:14;;;;;;;1.58;1.48;;;3.40;99.90;;;;;;5114779;28;20082;-81
2022/01/25 02:24:08;;;;;;;1.50;1.30;;;3.40;99.90;;;;;;5115240;28;20046;-81
2022/01/25 02:26:34;;;;;;;1.10;1.05;;;3.30;99.90;;;;;;5114544;28;20491;-81
2022/01/25 02:28:59;;;;;;;1.75;1.63;;;3.30;99.90;;;;;;5098194;28;20039;-81
2022/01/25 02:31:25;;;;;;;9.73;5.90;;;3.30;99.90;;;;;;5098202;28;20035;-81
2022/01/25 02:33:50;;;;;;;2.25;1.42;;;3.30;99.90;;;;;;5098167;28;20047;-81
2022/01/25 02:36:24;;;;;;;0.40;0.40;;;3.30;99.90;;;;;;5114732;28;20614;-81
2022/01/25 02:38:50;;;;;;;2.80;1.77;;;3.40;99.90;;;;;;5114943;28;20403;-81
2022/01/25 02:41:15;;;;;;;2.35;1.75;;;3.30;99.90;;;;;;5098111;28;20035;-81
2022/01/25 02:43:43;;;;;;;0.55;0.55;;;3.40;99.90;;;;;;5118724;27;20437;-80
2022/01/25 02:49:01;;;;;;;2.20;1.88;;;3.30;99.90;;;;;;5118852;27;20043;-81
2022/01/25 02:51:32;;;;;;;1.58;1.35;;;3.40;99.90;;;;;;5101603;27;20404;-81
2022/01/25 02:53:58;;;;;;;5.97;2.63;;;3.40;99.90;;;;;;5101533;27;20035;-81
2022/01/25 02:56:25;;;;;;;2.08;1.40;;;3.40;99.90;;;;;;5101179;27;20069;-81
2022/01/25 02:58:51;;;;;;;1.17;1.13;;;3.40;99.90;;;;;;5101435;27;20118;-81
2022/01/25 03:01:17;;;;;;;30.42;2.90;;;3.40;99.90;;;;;;5101511;27;20077;-81
2022/01/25 03:03:43;;;;;;;0.40;0.40;;;3.40;99.90;;;;;;5101555;27;20504;-81
2022/01/25 03:06:08;;;;;;;7.40;3.40;;;3.30;99.90;;;;;;5117733;27;20039;-81
2022/01/25 03:08:34;;;;;;;3.65;1.50;;;3.40;99.90;;;;;;5101069;27;20043;-81
2022/01/25 03:11:00;;;;;;;5.70;3.20;;;3.40;99.90;;;;;;5101225;27;20045;-81
2022/01/25 03:13:33;;;;;;;1.40;0.60;;;3.40;99.90;;;;;;5101263;27;20035;-81
2022/01/25 03:21:03;;;;;;;5.15;0.90;;;3.30;99.90;;;;;;5118080;27;20075;-81
2022/01/25 03:23:31;;;;;;;0.85;0.85;;;3.30;99.90;;;;;;5100956;27;20116;-81
2022/01/25 03:25:57;;;;;;;3.92;2.92;;;3.30;99.90;;;;;;5100902;27;20039;-81
2022/01/25 03:28:23;;;;;;;1.50;1.13;;;3.30;99.90;;;;;;5100630;27;20041;-81
2022/01/25 03:30:50;;;;;;;0.70;0.70;;;3.30;99.90;;;;;;5100704;27;20031;-81
2022/01/25 03:33:17;;;;;;;5.00;2.33;;;3.30;99.90;;;;;;5100540;27;20071;-81
2022/01/25 03:35:43;;;;;;;5.97;1.98;;;3.30;99.90;;;;;;5100960;27;20042;-81
2022/01/25 03:38:09;;;;;;;2.47;2.08;;;3.30;99.90;;;;;;5100150;27;20039;-81
2022/01/25 03:40:35;;;;;;;2.80;1.40;;;3.30;99.90;;;;;;5100666;27;20039;-81
2022/01/25 03:43:03;;;;;;;1.88;1.73;;;3.30;99.90;;;;;;5100627;27;20039;-81
2022/01/25 03:45:32;;;;;;;4.38;2.92;;;3.30;99.90;;;;;;5100614;27;20066;-81
2022/01/25 03:49:48;;;;;;;0.88;0.85;;;3.30;99.90;;;;;;5100224;27;20107;-81
2022/01/25 03:50:47;;;;;;;1.27;1.17;;;3.30;99.90;;;;;;5117441;27;20499;-81
2022/01/25 03:53:14;;;;;;;0.88;0.70;;;3.30;99.90;;;;;;5117073;27;20035;-81
2022/01/25 03:55:40;;;;;;;0.50;0.50;;;3.30;99.90;;;;;;5100295;27;20056;-81
2022/01/25 03:58:06;;;;;;;0.70;0.70;;;3.30;99.90;;;;;;5099660;27;20043;-81
2022/01/25 04:00:34;;;;;;;1.58;1.23;;;3.30;99.90;;;;;;5117399;27;20039;-81
2022/01/25 04:03:53;;;;;;;5.82;3.70;;;3.30;99.90;;;;;;5100462;27;20038;-81
2022/01/25 04:08:11;;;;;;;4.22;3.22;;;3.30;99.90;;;;;;5116878;27;20143;-81
2022/01/25 04:10:39;;;;;;;6.03;3.15;;;3.30;99.90;;;;;;5117025;27;20483;-81
2022/01/25 04:13:04;;;;;;;4.22;1.48;;;3.40;99.90;;;;;;5099640;27;20384;-81
2022/01/25 04:15:30;;;;;;;0.40;0.40;;;3.40;99.90;;;;;;5116768;27;20039;-81
2022/01/25 04:18:14;;;;;;;2.65;1.45;;;3.40;99.90;;;;;;5099091;27;20542;-81
2022/01/25 04:20:42;;;;;;;3.80;2.97;;;3.40;99.90;;;;;;5099621;27;20422;-81
2022/01/25 04:25:56;;;;;;;2.90;0.95;;;3.40;99.90;;;;;;5111689;27;20047;-81
2022/01/25 04:28:23;;;;;;;8.82;1.52;;;3.30;99.90;;;;;;5083068;27;20096;-81
2022/01/25 04:30:49;;;;;;;0.50;0.50;;;3.30;99.90;;;;;;5115211;27;20035;-82
2022/01/25 04:33:20;;;;;;;5.30;3.35;;;3.20;99.90;;;;;;5098752;27;20380;-81
2022/01/25 04:49:21;;;;;;;4.78;2.97;;;3.30;99.90;;;;;;5116188;27;20095;-81
2022/01/25 04:55:03;;;;;;;4.85;2.17;;;3.30;99.90;;;;;;5103031;27;20043;-81
2022/01/25 05:00:06;;;;;;;1.05;1.00;;;3.20;99.90;;;;;;5116136;27;20043;-81
2022/01/25 05:02:46;;;;;;;1.52;1.42;;;3.30;99.90;;;;;;5091281;27;20040;-81
2022/01/25 05:05:29;;;;;;;1.30;1.20;;;3.30;99.90;;;;;;5105367;27;20063;-81
2022/01/25 05:08:40;;;;;;;1.40;0.75;;;3.20;99.90;;;;;;5135611;27;20388;-81
2022/01/25 05:11:00;;;;;;;0.93;0.73;;;3.30;99.90;;;;;;5127346;27;20094;-81
2022/01/25 05:16:07;;;;;;;1.15;1.05;;;3.30;99.90;;;;;;5136023;27;20046;-81
2022/01/25 05:18:48;;;;;;;3.45;1.48;;;3.30;99.90;;;;;;5135695;27;20039;-81
2022/01/25 05:23:58;;;;;;;0.40;0.40;;;3.30;99.90;;;;;;5115982;27;20118;-81
2022/01/25 05:26:25;;;;;;;0.30;0.30;;;3.20;99.90;;;;;;5097663;27;20440;-80
2022/01/25 05:28:51;;;;;;;2.05;1.70;;;3.30;99.90;;;;;;5111952;27;20078;-81
2022/01/25 05:31:17;;;;;;;4.22;2.42;;;3.20;99.90;;;;;;5118752;27;20081;-81
2022/01/25 05:33:42;;;;;;;3.70;1.73;;;3.20;99.90;;;;;;5100926;28;20042;-81
2022/01/25 05:36:08;;;;;;;0.75;0.75;;;3.30;99.90;;;;;;5114596;28;20045;-81
2022/01/25 05:38:34;;;;;;;2.47;2.08;;;3.20;99.90;;;;;;5097999;28;20043;-81
2022/01/25 05:41:01;;;;;;;4.97;2.45;;;3.20;99.90;;;;;;5098019;28;20100;-81
2022/01/25 05:46:16;;;;;;;4.00;2.05;;;3.20;99.90;;;;;;5114986;28;20491;-81
2022/01/25 05:48:43;;;;;;;3.47;2.40;;;3.20;99.90;;;;;;5097877;28;20466;-81
2022/01/25 05:51:10;;;;;;;1.67;1.58;;;3.20;99.90;;;;;;5102034;27;20031;-81
2022/01/25 05:53:36;;;;;;;0.85;0.68;;;3.20;99.90;;;;;;5118946;27;20046;-81
2022/01/25 05:56:02;;;;;;;3.30;2.65;;;3.20;99.90;;;;;;5118376;27;20483;-81
2022/01/25 05:58:27;;;;;;;0.40;0.40;;;3.20;99.90;;;;;;5117997;27;20039;-81
2022/01/25 06:00:53;;;;;;;2.47;2.08;;;3.30;99.90;;;;;;5124780;28;20035;-81
2022/01/25 06:03:19;;;;;;;2.35;1.95;;;3.20;99.90;;;;;;5097886;28;20031;-81
2022/01/25 06:05:44;;;;;;;2.40;1.05;;;3.20;99.90;;;;;;5098038;28;20123;-81
2022/01/25 06:08:10;;;;;;;0.50;0.50;;;3.20;99.90;;;;;;5097410;28;20035;-81
2022/01/25 06:10:37;;;;;;;0.50;0.50;;;3.20;99.90;;;;;;5097680;28;20558;-81
2022/01/25 06:13:04;;;;;;;1.77;1.52;;;3.30;99.90;;;;;;5097796;28;20035;-83
2022/01/25 06:15:29;;;;;;;3.03;1.67;;;3.20;99.90;;;;;;5101787;27;20067;-81
2022/01/25 06:17:55;;;;;;;0.40;0.40;;;3.20;99.90;;;;;;5120300;27;20500;-81
2022/01/25 06:20:21;;;;;;;1.15;0.80;;;3.30;99.90;;;;;;5121736;27;20038;-82
2022/01/25 06:22:46;;;;;;;0.40;0.40;;;3.20;99.90;;;;;;5121980;27;20048;-81
2022/01/25 06:25:13;;;;;;;3.17;2.88;;;3.30;99.90;;;;;;5121841;27;20483;-81
2022/01/25 06:27:39;;;;;;;0.52;0.52;;;3.20;99.90;;;;;;5138412;27;20039;-81
2022/01/25 06:30:11;;;;;;;3.38;3.05;;;3.30;99.90;;;;;;5138890;27;20129;-81
2022/01/25 06:32:37;;;;;;;2.72;2.13;;;3.30;99.90;;;;;;5121719;27;20038;-81
2022/01/25 06:35:07;;;;;;;2.78;2.35;;;3.30;99.90;;;;;;5138997;27;20030;-81
2022/01/25 06:37:33;;;;;;;1.23;1.13;;;3.30;99.90;;;;;;5121123;27;20031;-81
2022/01/25 06:39:59;;;;;;;0.40;0.40;;;3.30;99.90;;;;;;5118527;27;20091;-81
2022/01/25 06:42:29;;;;;;;0.80;0.80;;;3.30;99.90;;;;;;5100883;27;20039;-81
2022/01/25 06:44:58;;;;;;;0.40;0.40;;;3.30;99.90;;;;;;5101230;27;20031;-81
2022/01/25 06:47:23;;;;;;;2.22;2.05;;;3.20;99.90;;;;;;5100456;27;20488;-81
2022/01/25 06:49:49;;;;;;;6.07;2.25;;;3.20;99.90;;;;;;5101317;27;20087;-81
2022/01/25 06:52:14;;;;;;;0.52;0.52;;;3.30;99.90;;;;;;5101045;27;20043;-81
2022/01/25 06:54:40;;;;;;;0.85;0.85;;;3.30;99.90;;;;;;5100808;27;20518;-83
2022/01/25 06:57:06;;;;;;;1.33;1.23;;;3.20;99.90;;;;;;5117277;27;20530;-81
2022/01/25 06:59:32;;;;;;;0.50;0.50;;;3.20;99.90;;;;;;5117871;27;20060;-81
2022/01/25 07:01:57;;;;;;;3.58;2.15;;;3.20;99.90;;;;;;5113419;27;20118;-81
2022/01/25 07:04:23;;;;;;;2.45;2.22;;;3.20;99.90;;;;;;5109211;27;20035;-82
2022/01/25 07:06:48;;;;;;;1.73;1.48;;;3.20;99.90;;;;;;5100309;27;20039;-81
2022/01/25 07:09:14;;;;;;;1.33;1.23;;;3.20;99.90;;;;;;5100518;27;20043;-81
2022/01/25 07:11:39;;;;;;;0.45;0.45;;;3.20;99.90;;;;;;5100481;27;20473;-82
2022/01/25 07:14:05;;;;;;;0.70;0.70;;;3.20;99.90;;;;;;5100530;27;20483;-81
2022/01/25 07:16:30;;;;;;;0.50;0.50;;;3.60;99.90;;;;;;5099897;27;20225;-81
2022/01/25 07:18:56;;;;;;;1.45;1.35;;;3.20;99.90;;;;;;5100524;27;20126;-81
2022/01/25 07:21:21;;;;;;;0.50;0.50;;;3.30;99.90;;;;;;5117244;27;20031;-81
2022/01/25 07:23:47;;;;;;;0.95;0.82;;;3.30;99.90;;;;;;5100317;27;20067;-81
2022/01/25 07:26:13;;;;;;;0.40;0.40;;;3.30;99.90;;;;;;5109434;27;20027;-81
2022/01/25 07:28:38;;;;;;;0.55;0.55;;;3.30;99.90;;;;;;5102144;27;20545;-82
2022/01/25 07:31:04;;;;;;;1.15;1.05;;;3.30;99.90;;;;;;5100273;27;20050;-81
2022/01/25 07:33:30;;;;;;;1.25;1.13;;;3.30;99.90;;;;;;5100232;27;20475;-81
2022/01/25 07:35:56;;;;;;;1.88;1.50;;;3.30;99.90;;;;;;5111922;27;20035;-81
2022/01/25 07:38:22;;;;;;;1.17;1.08;;;3.30;99.90;;;;;;5120053;27;20053;-81
2022/01/25 07:40:47;;;;;;;0.60;0.60;;;3.30;99.90;;;;;;5120761;27;20083;-81
2022/01/25 07:43:13;;;;;;;17.48;4.13;;;3.30;99.90;;;;;;5137776;27;20034;-81
2022/01/25 07:45:39;;;;;;;0.30;0.30;;;3.30;99.90;;;;;;5120464;27;20041;-81
2022/01/25 07:48:09;;;;;;;0.50;0.50;;;3.30;99.90;;;;;;5111274;27;20128;-81
2022/01/25 07:50:35;;;;;;;0.40;0.40;;;3.30;99.90;;;;;;5108464;27;20039;-81
2022/01/25 07:53:01;;;;;;;2.38;2.15;;;3.30;99.90;;;;;;5119987;27;20057;-81
2022/01/25 07:55:27;;;;;;;0.77;0.77;;;3.30;99.90;;;;;;5120281;27;20035;-81
2022/01/25 07:57:52;;;;;;;0.40;0.40;;;3.30;99.90;;;;;;5119465;27;20039;-81
2022/01/25 08:00:18;;;;;;;0.40;0.40;;;3.30;99.90;;;;;;5120228;27;20081;-82
2022/01/25 08:02:45;;;;;;;19.30;4.53;;;3.30;99.90;;;;;;5120050;27;20123;-81
2022/01/25 08:05:20;;;;;;;2.75;1.73;;;3.30;99.90;;;;;;5120115;27;20491;-81
2022/01/25 08:07:45;;;;;;;0.63;0.63;;;3.30;99.90;;;;;;5136828;27;20073;-81
2022/01/25 08:10:12;;;;;;;1.92;1.23;;;3.30;99.90;;;;;;5119655;27;20529;-81
2022/01/25 08:12:38;;;;;;;2.10;1.13;;;3.30;99.90;;;;;;5105363;27;20522;-81
2022/01/25 08:15:06;;;;;;;0.73;0.73;;;3.30;99.90;;;;;;5103298;27;20039;-81
2022/01/25 08:17:32;;;;;;;1.40;1.30;;;3.30;99.90;;;;;;5098421;27;20108;-80
2022/01/25 08:19:58;;;;;;;3.10;2.40;;;3.30;99.90;;;;;;5115617;27;20043;-81
2022/01/25 08:22:24;;;;;;;2.90;2.00;;;3.30;99.90;;;;;;5099005;27;20117;-81
2022/01/25 08:24:53;;;;;;;0.70;0.70;;;3.30;99.90;;;;;;5116486;27;20052;-81
2022/01/25 08:27:22;;;;;;;1.13;1.05;;;3.30;99.90;;;;;;5098100;27;20035;-81
2022/01/25 08:29:49;;;;;;;2.40;2.13;;;3.30;99.90;;;;;;5115683;27;20415;-81
2022/01/25 08:32:14;;;;;;;6.07;3.70;;;3.30;99.90;;;;;;5115454;27;20035;-81
2022/01/25 08:34:40;;;;;;;2.05;1.30;;;3.30;99.90;;;;;;5098632;27;20511;-81
2022/01/25 08:37:05;;;;;;;4.55;1.13;;;3.30;99.90;;;;;;5107150;27;20126;-80
2022/01/25 08:39:31;;;;;;;4.35;2.67;;;3.30;99.90;;;;;;5100451;27;20043;-81
2022/01/25 08:41:57;;;;;;;0.60;0.60;;;3.30;99.90;;;;;;5098930;27;20484;-81
2022/01/25 08:44:23;;;;;;;0.40;0.40;;;3.40;99.90;;;;;;5115502;27;20560;-81
2022/01/25 08:46:49;;;;;;;0.45;0.45;;;3.40;99.90;;;;;;5122064;27;20042;-81
2022/01/25 08:49:14;;;;;;;2.90;2.67;;;3.40;99.90;;;;;;5118709;27;20043;-81
2022/01/25 08:51:40;;;;;;;2.28;2.08;;;3.40;99.90;;;;;;5108648;27;20035;-80
2022/01/25 08:54:06;;;;;;;0.60;0.60;;;3.30;99.90;;;;;;5098268;27;20039;-81
2022/01/25 08:56:32;;;;;;;0.50;0.50;;;3.30;99.90;;;;;;5114504;27;20074;-80
2022/01/25 08:58:57;;;;;;;0.60;0.60;;;3.30;99.90;;;;;;5106723;27;20404;-81
2022/01/25 09:01:25;;;;;;;1.15;1.05;;;3.30;99.90;;;;;;5111177;27;20820;-81
2022/01/25 09:03:51;;;;;;;4.18;2.28;;;3.30;99.90;;;;;;5098876;27;20117;-81
2022/01/25 09:06:17;;;;;;;1.23;1.13;;;3.40;99.90;;;;;;5098164;27;20067;-81
2022/01/25 09:08:42;;;;;;;9.07;2.50;;;3.40;99.90;;;;;;5098649;27;20481;-81
2022/01/25 09:11:08;;;;;;;0.70;0.70;;;3.40;99.90;;;;;;5098406;27;20046;-81
2022/01/25 09:13:34;;;;;;;4.72;2.55;;;3.40;99.90;;;;;;5098167;27;20045;-80
2022/01/25 09:16:00;;;;;;;6.70;2.95;;;3.30;99.90;;;;;;5098070;27;20391;-81
2022/01/25 09:18:27;;;;;;;2.15;1.83;;;3.40;99.90;;;;;;5114884;28;20028;-80
2022/01/25 09:20:52;;;;;;;1.23;1.13;;;3.40;99.90;;;;;;5115112;27;20066;-80
2022/01/25 09:23:19;;;;;;;2.55;1.30;;;3.40;99.90;;;;;;5105117;27;20063;-80
2022/01/25 09:25:49;;;;;;;4.70;3.22;;;3.40;99.90;;;;;;5107552;27;20574;-80
2022/01/25 09:28:15;;;;;;;1.38;1.15;;;3.40;99.90;;;;;;5097612;28;20039;-80
2022/01/25 09:30:41;;;;;;;0.52;0.52;;;3.30;99.90;;;;;;5098189;28;20503;-80
2022/01/25 09:33:07;;;;;;;8.77;3.47;;;3.30;99.90;;;;;;5098127;28;20135;-80
2022/01/25 09:35:33;;;;;;;2.45;1.65;;;3.30;99.90;;;;;;5098280;28;20126;-80
2022/01/25 09:37:58;;;;;;;2.42;1.83;;;3.30;99.90;;;;;;5097282;28;20042;-81
2022/01/25 09:40:24;;;;;;;4.03;2.95;;;3.40;99.90;;;;;;5123581;28;20079;-81
2022/01/25 09:42:53;;;;;;;2.85;2.17;;;3.40;99.90;;;;;;5106126;28;20027;-81
2022/01/25 09:45:19;;;;;;;7.18;3.30;;;3.50;99.90;;;;;;5127706;27;20042;-81
2022/01/25 09:47:46;;;;;;;1.02;0.90;;;3.40;99.90;;;;;;5112781;28;20042;-81
2022/01/25 09:50:12;;;;;;;4.38;2.47;;;3.40;99.90;;;;;;5126323;27;20054;-81
2022/01/25 09:52:41;;;;;;;0.60;0.60;;;3.40;99.90;;;;;;5138718;27;20495;-81
2022/01/25 09:55:17;;;;;;;0.77;0.77;;;3.40;99.90;;;;;;5122353;27;20122;-80
2022/01/25 09:57:56;;;;;;;0.95;0.85;;;3.40;99.90;;;;;;5115069;27;20039;-81
2022/01/25 10:00:25;;;;;;;2.47;2.15;;;3.50;99.90;;;;;;5108323;27;20035;-81
2022/01/25 10:03:05;;;;;;;1.42;1.33;;;3.40;99.90;;;;;;5099645;27;20060;-81
2022/01/25 10:05:35;;;;;;;4.97;3.55;;;3.50;99.90;;;;;;5096972;27;20104;-81
2022/01/25 10:08:26;;;;;;;11.27;5.82;;;3.50;99.90;;;;;;5090552;27;20499;-81
2022/01/25 10:11:01;;;;;;;1.38;0.98;;;3.50;99.90;;;;;;5105561;27;20043;-81
2022/01/25 10:13:36;;;;;;;2.22;1.75;;;3.50;99.90;;;;;;5116355;27;20062;-81
2022/01/25 10:16:08;;;;;;;8.15;4.82;;;3.50;99.90;;;;;;5115943;27;20046;-81
2022/01/25 10:18:38;;;;;;;0.47;0.47;;;3.50;99.90;;;;;;5105022;27;20054;-80
2022/01/25 10:21:09;;;;;;;3.38;1.20;;;3.50;99.90;;;;;;5101430;27;20043;-81
2022/01/25 10:23:35;;;;;;;10.70;5.50;;;3.60;99.90;;;;;;5097165;27;20040;-81
2022/01/25 10:26:01;;;;;;;3.75;2.92;;;3.60;99.90;;;;;;5101169;27;20046;-81
2022/01/25 10:28:29;;;;;;;4.90;1.55;;;3.60;99.90;;;;;;5114675;27;20670;-80
2022/01/25 10:31:00;;;;;;;7.28;3.95;;;3.60;99.90;;;;;;5103190;28;20561;-81
2022/01/25 10:33:35;;;;;;;7.13;1.95;;;3.60;99.90;;;;;;5098896;27;20046;-81
2022/01/25 10:36:22;;;;;;;0.60;0.60;;;3.70;99.90;;;;;;5111715;27;20039;-82
2022/01/25 10:38:52;;;;;;;0.90;0.82;;;3.70;99.90;;;;;;5114433;27;20047;-81
2022/01/25 10:41:20;;;;;;;1.98;1.27;;;3.70;99.90;;;;;;5100982;27;20027;-81
2022/01/25 10:43:49;;;;;;;10.68;2.75;;;3.70;99.90;;;;;;5100765;27;20035;-81
2022/01/25 10:46:26;;;;;;;12.40;6.72;;;3.70;99.90;;;;;;5100100;27;20438;-81
2022/01/25 10:49:18;;;;;;;6.97;2.28;;;3.70;99.90;;;;;;5100594;27;20063;-80
2022/01/25 10:51:46;;;;;;;0.50;0.50;;;3.70;99.90;;;;;;5096741;27;20043;-82
2022/01/25 10:54:19;;;;;;;3.22;1.73;;;3.70;99.90;;;;;;5100795;27;20038;-81
2022/01/25 10:56:56;;;;;;;20.25;3.47;;;3.70;99.90;;;;;;5100312;27;20074;-81
2022/01/25 10:59:25;;;;;;;0.40;0.40;;;3.70;99.90;;;;;;5109023;27;20079;-81
2022/01/25 11:01:52;;;;;;;7.32;3.30;;;3.80;99.90;;;;;;5137676;27;20027;-81
2022/01/25 11:04:23;;;;;;;18.13;6.22;;;3.70;99.90;;;;;;5111818;27;20035;-81
2022/01/25 11:06:58;;;;;;;3.67;2.90;;;3.70;99.90;;;;;;5116925;27;20050;-81
2022/01/25 11:09:26;;;;;;;1.65;1.55;;;3.70;99.90;;;;;;5117145;27;20039;-81
2022/01/25 11:11:56;;;;;;;0.40;0.40;;;3.70;99.90;;;;;;5100445;27;20492;-81
2022/01/25 11:17:05;;;;;;;6.13;1.85;;;3.80;99.90;;;;;;5116432;27;20423;-82
2022/01/25 11:19:31;;;;;;;2.85;1.92;;;3.80;99.90;;;;;;5116883;27;20031;-81
2022/01/25 11:21:59;;;;;;;3.40;0.98;;;3.80;99.90;;;;;;5112486;27;20043;-81
2022/01/25 11:24:31;;;;;;;4.13;2.97;;;3.80;99.90;;;;;;5094522;27;20482;-82
2022/01/25 11:27:03;;;;;;;4.10;2.17;;;3.80;99.90;;;;;;5116371;27;20064;-81
2022/01/25 11:29:28;;;;;;;5.57;2.30;;;3.80;99.90;;;;;;5099773;27;20050;-81
2022/01/25 11:32:03;;;;;;;3.60;2.72;;;3.90;99.90;;;;;;5117171;27;20031;-83
2022/01/25 11:34:32;;;;;;;1.75;1.50;;;3.90;99.90;;;;;;5116777;27;20066;-81
2022/01/25 11:37:02;;;;;;;2.05;1.48;;;3.90;99.90;;;;;;5099251;27;20074;-81
2022/01/25 11:39:29;;;;;;;1.30;1.23;;;3.90;99.90;;;;;;5099612;27;20035;-81
2022/01/25 11:42:17;;;;;;;1.27;1.20;;;3.90;99.90;;;;;;5116828;27;20076;-81
2022/01/25 11:44:56;;;;;;;8.00;2.90;;;3.90;99.90;;;;;;5099579;27;20031;-81
2022/01/25 11:47:30;;;;;;;7.38;3.67;;;3.90;99.90;;;;;;5103397;27;20120;-81
2022/01/25 11:49:56;;;;;;;5.07;4.68;;;3.90;99.90;;;;;;5099681;27;20047;-81
2022/01/25 11:52:25;;;;;;;1.98;1.27;;;3.90;99.90;;;;;;5116492;27;20087;-81
2022/01/25 11:54:54;;;;;;;6.72;3.92;;;3.90;99.90;;;;;;5116687;27;20053;-81
2022/01/25 11:57:24;;;;;;;5.43;1.90;;;3.90;99.90;;;;;;5098612;27;20043;-81
2022/01/25 11:59:59;;;;;;;4.95;2.40;;;3.90;99.90;;;;;;5128934;27;20084;-81
2022/01/25 12:02:51;;;;;;;7.72;3.47;;;3.90;99.90;;;;;;5112805;27;20030;-81
2022/01/25 12:05:26;;;;;;;9.52;5.18;;;3.90;99.90;;;;;;5136750;27;20034;-81
2022/01/25 12:08:04;;;;;;;2.22;1.67;;;3.90;99.90;;;;;;5119575;27;20563;-81
2022/01/25 12:10:46;;;;;;;2.25;2.05;;;3.90;99.90;;;;;;5108999;27;20070;-81
2022/01/25 12:13:29;;;;;;;10.50;2.00;;;3.90;99.90;;;;;;5116291;27;20050;-80
2022/01/25 12:16:30;;;;;;;3.95;2.95;;;3.90;99.90;;;;;;5099277;27;20031;-81
2022/01/25 12:19:02;;;;;;;5.85;4.32;;;4.00;99.90;;;;;;4998263;28;20041;-81
2022/01/25 12:21:53;;;;;;;17.52;7.30;;;4.00;99.90;;;;;;5100057;27;20533;-81
2022/01/25 12:24:40;;;;;;;0.70;0.70;;;4.00;99.90;;;;;;5116453;27;20051;-81
2022/01/25 12:27:43;;;;;;;6.30;3.28;;;4.00;99.90;;;;;;5136143;27;20399;-81
2022/01/25 12:30:17;;;;;;;5.32;3.33;;;4.00;99.90;;;;;;5119222;27;20042;-81
2022/01/25 12:33:00;;;;;;;3.85;3.50;;;3.90;99.90;;;;;;5111101;27;20086;-81
2022/01/25 12:35:45;;;;;;;9.32;4.03;;;3.90;99.90;;;;;;5100724;27;20034;-81
2022/01/25 12:38:23;;;;;;;1.00;0.60;;;3.90;99.90;;;;;;5115077;27;20039;-81
2022/01/25 12:41:11;;;;;;;2.33;1.60;;;3.90;99.90;;;;;;5082278;27;20040;-81
2022/01/25 12:43:41;;;;;;;6.35;3.35;;;3.90;99.90;;;;;;5091125;28;20400;-81
2022/01/25 12:46:14;;;;;;;3.22;2.50;;;3.90;99.90;;;;;;5099394;27;20061;-81
2022/01/25 12:48:46;;;;;;;0.88;0.85;;;3.90;99.90;;;;;;5098598;27;20035;-81
2022/01/25 12:51:17;;;;;;;10.07;3.85;;;4.00;99.90;;;;;;5091876;27;20066;-81
2022/01/25 12:53:45;;;;;;;4.93;2.35;;;4.00;99.90;;;;;;5090132;28;20089;-82
2022/01/25 12:56:19;;;;;;;4.47;3.90;;;4.00;99.90;;;;;;5097688;27;20069;-81
2022/01/25 12:58:48;;;;;;;17.20;7.22;;;4.00;99.90;;;;;;5105800;27;20031;-81
2022/01/25 13:01:16;;;;;;;9.27;4.70;;;4.00;99.90;;;;;;5094318;28;20046;-81
2022/01/25 13:03:47;;;;;;;10.68;5.90;;;4.00;99.90;;;;;;5089460;28;20137;-81
2022/01/25 13:06:22;;;;;;;2.75;1.95;;;3.90;99.90;;;;;;5077691;28;20032;-81
2022/01/25 13:09:01;;;;;;;9.97;4.70;;;4.00;99.90;;;;;;5109804;27;20505;-81
2022/01/25 13:12:13;;;;;;;8.00;3.15;;;4.00;99.90;;;;;;5092798;27;20441;-81
2022/01/25 13:17:16;;;;;;;16.48;6.18;;;4.00;99.90;;;;;;5114703;28;20476;-81
2022/01/25 13:19:58;;;;;;;0.73;0.73;;;4.00;99.90;;;;;;5127792;27;20031;-81
2022/01/25 13:22:37;;;;;;;7.28;4.15;;;4.00;99.90;;;;;;5112438;27;20045;-81
2022/01/25 13:25:26;;;;;;;11.60;4.60;;;4.00;99.90;;;;;;5118319;27;20037;-81
2022/01/25 13:27:56;;;;;;;12.77;4.53;;;4.00;99.90;;;;;;5118068;27;20054;-81
2022/01/25 13:30:45;;;;;;;7.57;4.38;;;4.00;99.90;;;;;;5119171;27;20038;-81
2022/01/25 13:33:18;;;;;;;8.15;3.38;;;4.00;99.90;;;;;;5118824;27;20150;-81
2022/01/25 13:35:49;;;;;;;5.07;3.35;;;3.90;99.90;;;;;;5122578;28;20062;-81
2022/01/25 13:38:25;;;;;;;7.90;3.03;;;3.90;99.90;;;;;;5114395;28;20043;-81
2022/01/25 13:46:15;;;;;;;4.22;2.42;;;3.90;99.90;;;;;;5114550;28;20069;-82
2022/01/25 13:48:42;;;;;;;2.25;1.48;;;3.90;99.90;;;;;;5094597;28;20088;-82
2022/01/25 13:54:39;;;;;;;4.00;2.83;;;3.90;99.90;;;;;;5094487;28;20439;-81
2022/01/25 13:57:10;;;;;;;20.17;6.32;;;3.90;99.90;;;;;;5077108;28;20084;-81
2022/01/25 13:59:36;;;;;;;0.98;0.95;;;3.90;99.90;;;;;;5077394;28;20042;-85
2022/01/25 14:02:03;;;;;;;2.13;1.95;;;3.90;99.90;;;;;;5094434;28;20043;-81
2022/01/25 14:04:29;;;;;;;3.72;2.67;;;3.90;99.90;;;;;;5077417;28;20056;-82
2022/01/25 14:07:00;;;;;;;5.00;2.90;;;3.90;99.90;;;;;;5125184;28;20043;-83
2022/01/25 14:09:36;;;;;;;4.38;2.22;;;3.90;99.90;;;;;;5116726;27;20453;-81
2022/01/25 14:25:39;;;;;;;6.88;2.15;;;3.80;99.90;;;;;;5114859;28;20050;-82
2022/01/25 14:28:12;;;;;;;1.58;1.48;;;3.80;99.90;;;;;;5097053;28;20063;-81
2022/01/25 14:30:40;;;;;;;9.90;5.18;;;3.80;99.90;;;;;;5105868;27;20027;-82
2022/01/25 14:33:15;;;;;;;11.05;6.18;;;3.80;99.90;;;;;;5117915;27;20042;-81
2022/01/25 14:35:51;;;;;;;4.30;2.92;;;3.80;99.90;;;;;;5135415;27;20058;-81
2022/01/25 14:38:22;;;;;;;0.52;0.52;;;3.90;99.90;;;;;;5120135;27;20086;-81
2022/01/25 14:41:07;;;;;;;2.72;2.33;;;3.80;99.90;;;;;;5121743;27;20035;-81
2022/01/25 14:43:48;;;;;;;0.70;0.70;;;3.90;99.90;;;;;;5121543;27;20042;-81
2022/01/25 14:46:23;;;;;;;17.75;2.05;;;3.80;99.90;;;;;;5103121;27;20039;-82
2022/01/25 14:49:13;;;;;;;0.30;0.30;;;3.90;99.90;;;;;;5102586;27;20408;-81
2022/01/25 14:51:43;;;;;;;1.02;0.70;;;3.80;99.90;;;;;;5138565;27;20080;-81
2022/01/25 14:54:11;;;;;;;6.07;3.13;;;3.80;99.90;;;;;;5113023;27;20508;-82
2022/01/25 14:56:52;;;;;;;10.35;3.40;;;3.80;99.90;;;;;;5103875;27;20042;-81
2022/01/25 14:59:27;;;;;;;8.13;4.15;;;3.80;99.90;;;;;;5117767;27;20436;-81
2022/01/25 15:02:04;;;;;;;3.30;1.05;;;3.80;99.90;;;;;;5100763;27;20031;-81
2022/01/25 15:04:37;;;;;;;15.90;5.55;;;3.80;99.90;;;;;;5117808;27;20032;-81
2022/01/25 15:07:12;;;;;;;5.05;3.30;;;3.80;99.90;;;;;;5100142;27;20483;-81
2022/01/25 15:09:54;;;;;;;6.65;5.05;;;3.70;99.90;;;;;;5100780;27;20058;-81
2022/01/25 15:12:45;;;;;;;4.20;1.85;;;3.80;99.90;;;;;;5100907;27;20039;-81